Time;durP1;ratioP1;P1;durP2;ratioP2;P2;SDS_P1;SDS_P2;PMS_P1;PMS_P2;Temp;Humidity;BMP_temperature;BMP_pressure;BME280_temperature;BME280_humidity;BME280_pressure;Samples;Min_cycle;Max_cycle;Signal;HPM_P1;HPM_P2
2023/09/04 00:00:25;;;;;;;41.30;24.03;;;;;;;14.71;100.00;102363.88;4995406;28;20025;-85
2023/09/04 00:02:50;;;;;;;37.30;21.35;;;;;;;14.73;100.00;102368.09;4995740;28;20040;-85
2023/09/04 00:05:18;;;;;;;40.70;23.15;;;;;;;14.71;100.00;102371.94;4994892;28;20038;-85
2023/09/04 00:07:46;;;;;;;35.35;19.65;;;;;;;14.59;100.00;102363.22;4979211;28;20030;-86
2023/09/04 00:10:12;;;;;;;38.30;21.52;;;;;;;14.62;100.00;102370.16;4995261;28;20026;-85
2023/09/04 00:12:38;;;;;;;34.42;20.60;;;;;;;14.52;100.00;102370.16;4978869;28;20029;-85
2023/09/04 00:15:04;;;;;;;33.20;18.95;;;;;;;14.48;100.00;102368.75;4985428;28;20060;-86
2023/09/04 00:17:30;;;;;;;32.80;20.90;;;;;;;14.41;100.00;102365.81;4995084;28;20033;-85
2023/09/04 00:19:56;;;;;;;31.38;19.20;;;;;;;14.50;100.00;102370.31;4979120;28;20033;-85
2023/09/04 00:22:21;;;;;;;33.17;19.08;;;;;;;14.57;100.00;102379.50;4980406;28;20048;-85
2023/09/04 00:24:47;;;;;;;29.90;17.17;;;;;;;14.43;100.00;102369.22;4985875;28;20030;-85
2023/09/04 00:27:12;;;;;;;31.33;17.80;;;;;;;14.38;100.00;102374.19;5002777;28;20451;-85
2023/09/04 00:29:37;;;;;;;26.60;17.50;;;;;;;14.32;100.00;102374.75;4995407;28;20033;-85
2023/09/04 00:32:03;;;;;;;25.00;15.63;;;;;;;14.26;100.00;102368.16;4978196;28;20133;-85
2023/09/04 00:34:28;;;;;;;31.48;17.50;;;;;;;14.19;100.00;102367.06;4970318;28;20022;-85
2023/09/04 00:36:54;;;;;;;31.00;17.40;;;;;;;14.18;100.00;102370.72;4995811;28;20579;-85
2023/09/04 00:39:19;;;;;;;40.97;21.80;;;;;;;14.21;100.00;102367.75;4993786;28;20562;-85
2023/09/04 00:41:46;;;;;;;33.80;19.00;;;;;;;14.20;100.00;102366.03;4985819;28;20045;-84
2023/09/04 00:44:12;;;;;;;29.30;17.45;;;;;;;14.21;100.00;102375.81;4978426;28;20045;-85
2023/09/04 00:46:37;;;;;;;32.40;18.08;;;;;;;14.22;100.00;102372.13;5004210;28;20026;-85
2023/09/04 00:49:03;;;;;;;35.07;18.40;;;;;;;14.31;100.00;102383.84;4995496;28;20033;-85
2023/09/04 00:51:29;;;;;;;33.65;19.15;;;;;;;14.18;100.00;102376.09;4971915;28;20022;-85
2023/09/04 00:53:55;;;;;;;33.53;19.55;;;;;;;14.19;100.00;102372.41;4978845;28;20041;-85
2023/09/04 00:56:21;;;;;;;41.72;24.33;;;;;;;14.16;100.00;102361.94;4994314;28;20038;-85
2023/09/04 00:58:47;;;;;;;43.13;24.65;;;;;;;14.27;100.00;102379.75;4995400;28;20037;-85
2023/09/04 01:01:13;;;;;;;;;;;;;;;14.27;100.00;102379.75;4983202;28;20468;-85
2023/09/04 01:03:38;;;;;;;;;;;;;;;14.34;100.00;102376.31;5010227;28;19914;-85
2023/09/04 01:06:04;;;;;;;49.70;26.80;;;;;;;14.46;100.00;102382.34;4993826;28;20303;-84
2023/09/04 01:08:31;;;;;;;47.78;26.35;;;;;;;14.49;100.00;102374.00;5011101;28;20017;-85
2023/09/04 01:11:21;;;;;;;56.20;28.37;;;;;;;14.58;100.00;102388.41;4981916;28;20040;-85
2023/09/04 01:13:50;;;;;;;54.38;27.50;;;;;;;14.54;100.00;102382.50;5000412;28;20492;-85
2023/09/04 01:16:17;;;;;;;47.75;27.55;;;;;;;14.53;100.00;102374.53;4994753;28;20435;-85
2023/09/04 01:18:43;;;;;;;53.47;27.23;;;;;;;14.43;100.00;102366.53;4995099;28;20030;-85
2023/09/04 01:21:08;;;;;;;50.38;26.17;;;;;;;14.48;100.00;102377.66;4981350;28;20056;-85
2023/09/04 01:23:34;;;;;;;46.28;25.70;;;;;;;14.49;100.00;102362.38;4979498;28;20046;-85
2023/09/04 01:26:08;;;;;;;58.40;29.50;;;;;;;14.46;100.00;102363.53;4979826;28;20188;-86
2023/09/04 01:28:42;;;;;;;42.85;22.67;;;;;;;14.43;100.00;102368.38;5011329;22;20034;-70
2023/09/04 01:31:13;;;;;;;36.97;21.17;;;;;;;14.33;100.00;102353.13;4998901;28;20046;-70
2023/09/04 01:33:44;;;;;;;39.90;20.33;;;;;;;14.31;100.00;102354.28;4977993;28;20061;-70
2023/09/04 01:36:14;;;;;;;42.78;23.52;;;;;;;14.38;100.00;102354.53;4985929;28;20034;-70
2023/09/04 01:38:41;;;;;;;45.72;23.38;;;;;;;14.35;100.00;102351.16;4974237;28;20085;-71
2023/09/04 01:41:06;;;;;;;32.75;19.65;;;;;;;14.29;100.00;102342.84;4973913;28;20018;-70
2023/09/04 01:43:32;;;;;;;52.17;23.83;;;;;;;14.20;100.00;102343.72;4954795;28;20037;-70
2023/09/04 01:45:57;;;;;;;50.40;27.53;;;;;;;14.27;100.00;102342.97;4993318;28;20073;-70
2023/09/04 01:48:23;;;;;;;46.15;24.88;;;;;;;14.30;100.00;102348.03;5000608;28;20055;-71
2023/09/04 01:50:48;;;;;;;47.87;24.83;;;;;;;14.29;100.00;102349.03;4986864;28;20073;-71
2023/09/04 01:53:13;;;;;;;68.43;31.63;;;;;;;14.28;100.00;102346.50;4970200;28;20042;-71
2023/09/04 01:55:39;;;;;;;57.93;26.10;;;;;;;14.23;100.00;102341.56;4971834;28;20023;-70
2023/09/04 01:58:04;;;;;;;45.47;24.77;;;;;;;14.25;100.00;102353.00;4984619;28;20026;-70
2023/09/04 02:00:30;;;;;;;48.35;25.58;;;;;;;14.24;100.00;102348.66;5009459;28;20507;-71
2023/09/04 02:02:55;;;;;;;60.60;29.57;;;;;;;14.19;100.00;102345.56;4988037;28;20080;-71
2023/09/04 02:05:21;;;;;;;48.17;23.70;;;;;;;14.15;100.00;102350.38;4985852;28;20030;-71
2023/09/04 02:07:46;;;;;;;39.47;21.23;;;;;;;14.11;100.00;102351.66;4985409;28;20036;-71
2023/09/04 02:10:12;;;;;;;51.23;24.43;;;;;;;14.04;100.00;102349.69;4991136;28;20038;-71
2023/09/04 02:12:37;;;;;;;41.03;23.37;;;;;;;14.01;100.00;102344.63;4997860;28;20065;-70
2023/09/04 02:15:04;;;;;;;39.22;21.65;;;;;;;13.88;100.00;102336.88;4980901;28;20056;-71
2023/09/04 02:17:30;;;;;;;76.50;32.40;;;;;;;13.98;100.00;102344.91;4973594;28;20051;-70
2023/09/04 02:19:55;;;;;;;75.83;33.90;;;;;;;14.06;100.00;102356.63;4990842;28;20548;-71
2023/09/04 02:22:21;;;;;;;66.87;31.07;;;;;;;13.93;100.00;102351.59;4986128;28;20478;-71
2023/09/04 02:24:47;;;;;;;70.93;32.43;;;;;;;13.92;100.00;102349.88;4992829;28;20053;-70
2023/09/04 02:27:13;;;;;;;58.17;29.92;;;;;;;13.85;100.00;102345.22;4984965;28;20269;-70
2023/09/04 02:29:39;;;;;;;64.95;30.88;;;;;;;13.87;100.00;102345.94;4985632;28;20042;-70
2023/09/04 02:32:05;;;;;;;66.23;30.57;;;;;;;13.90;100.00;102349.16;4989596;28;20526;-70
2023/09/04 02:34:30;;;;;;;68.53;31.13;;;;;;;13.91;100.00;102348.19;4980287;28;20021;-71
2023/09/04 02:36:58;;;;;;;62.57;29.13;;;;;;;13.89;100.00;102352.84;4978342;28;20281;-71
2023/09/04 02:39:23;;;;;;;75.43;30.45;;;;;;;13.85;100.00;102359.50;4990906;28;20448;-70
2023/09/04 02:41:48;;;;;;;62.00;28.83;;;;;;;13.79;100.00;102344.00;5006081;28;20046;-71
2023/09/04 02:44:14;;;;;;;54.63;27.07;;;;;;;13.71;100.00;102347.38;4986021;28;20273;-70
2023/09/04 02:46:39;;;;;;;52.17;27.17;;;;;;;13.69;100.00;102343.97;4974616;28;20030;-70
2023/09/04 02:49:04;;;;;;;60.73;27.43;;;;;;;13.57;100.00;102329.03;4967052;28;20041;-70
2023/09/04 02:51:30;;;;;;;67.73;31.47;;;;;;;13.58;100.00;102328.06;4985956;28;20030;-70
2023/09/04 02:53:55;;;;;;;50.93;25.80;;;;;;;13.56;100.00;102331.88;4992300;28;20030;-71
2023/09/04 02:56:20;;;;;;;68.43;31.03;;;;;;;13.61;100.00;102337.66;4980542;28;20042;-70
2023/09/04 02:58:47;;;;;;;78.80;33.47;;;;;;;13.64;100.00;102334.69;4985058;28;20034;-70
2023/09/04 03:01:18;;;;;;;61.83;29.07;;;;;;;13.62;100.00;102331.28;5002099;28;20479;-70
2023/09/04 03:03:43;;;;;;;78.45;35.17;;;;;;;13.58;100.00;102335.25;4986129;28;20428;-72
2023/09/04 03:06:10;;;;;;;66.57;30.40;;;;;;;13.63;100.00;102341.06;4997909;28;20069;-72
2023/09/04 03:08:36;;;;;;;75.70;34.45;;;;;;;13.69;100.00;102343.97;4971038;28;20029;-72
2023/09/04 03:11:01;;;;;;;107.18;39.58;;;;;;;13.82;100.00;102349.06;4985376;28;20119;-73
2023/09/04 03:13:27;;;;;;;87.05;36.03;;;;;;;13.86;100.00;102357.66;4968794;28;20046;-72
2023/09/04 03:15:52;;;;;;;78.87;34.73;;;;;;;13.84;100.00;102354.28;4982953;28;20035;-72
2023/09/04 03:18:18;;;;;;;109.97;41.37;;;;;;;14.04;100.00;102363.13;4984318;28;20038;-72
2023/09/04 03:20:43;;;;;;;95.70;39.53;;;;;;;14.17;100.00;102360.97;4998313;28;20032;-72
2023/09/04 03:23:09;;;;;;;101.60;39.37;;;;;;;14.12;100.00;102355.19;4981124;28;20088;-73
2023/09/04 03:25:35;;;;;;;102.00;39.63;;;;;;;14.03;100.00;102350.72;4970380;28;20060;-72
2023/09/04 03:28:01;;;;;;;118.97;41.97;;;;;;;14.02;100.00;102346.31;4982239;28;20023;-72
2023/09/04 03:30:27;;;;;;;86.63;37.83;;;;;;;14.06;100.00;102351.25;4985673;28;20042;-73
2023/09/04 03:32:53;;;;;;;91.13;37.10;;;;;;;14.10;100.00;102352.66;5001717;28;20030;-73
2023/09/04 03:35:18;;;;;;;105.00;38.87;;;;;;;14.13;100.00;102359.56;4999208;28;20029;-73
2023/09/04 03:37:44;;;;;;;110.60;41.45;;;;;;;14.09;100.00;102355.47;4985415;28;20026;-72
2023/09/04 03:40:21;;;;;;;107.60;39.53;;;;;;;14.10;100.00;102354.50;5003155;28;20080;-73
2023/09/04 03:42:46;;;;;;;83.70;37.45;;;;;;;13.99;100.00;102349.31;4968558;28;20030;-72
2023/09/04 03:45:12;;;;;;;74.55;34.47;;;;;;;14.02;100.00;102357.06;4969285;28;20401;-73
2023/09/04 03:47:37;;;;;;;94.88;35.60;;;;;;;13.90;100.00;102348.31;4973507;28;20034;-72
2023/09/04 03:50:04;;;;;;;79.40;34.63;;;;;;;13.91;100.00;102353.56;5000200;28;20084;-72
2023/09/04 03:52:30;;;;;;;67.65;30.85;;;;;;;13.85;100.00;102353.28;4993085;28;20045;-72
2023/09/04 03:54:56;;;;;;;92.90;35.95;;;;;;;13.86;100.00;102349.59;4985223;28;20056;-72
2023/09/04 03:57:22;;;;;;;74.40;32.73;;;;;;;13.85;100.00;102359.50;5001765;28;20408;-72
2023/09/04 03:59:52;;;;;;;78.30;33.67;;;;;;;13.90;100.00;102362.59;4987583;28;20124;-72
2023/09/04 04:02:17;;;;;;;74.07;32.60;;;;;;;13.90;100.00;102362.59;4985602;28;20035;-71
2023/09/04 04:04:43;;;;;;;75.70;32.80;;;;;;;13.90;100.00;102354.53;4978466;28;20543;-71
2023/09/04 04:07:09;;;;;;;;;;;;;;;13.92;100.00;102357.94;4985255;28;20030;-71
2023/09/04 04:09:34;;;;;;;106.00;37.30;;;;;;;13.92;100.00;102355.25;4988826;28;19956;-71
2023/09/04 04:12:00;;;;;;;82.07;32.50;;;;;;;13.96;100.00;102363.88;4985195;28;20034;-71
2023/09/04 04:14:25;;;;;;;82.57;34.50;;;;;;;13.88;100.00;102361.03;4988235;28;20535;-72
2023/09/04 04:16:51;;;;;;;95.23;36.97;;;;;;;13.85;100.00;102353.28;4992303;28;20042;-71
2023/09/04 04:19:16;;;;;;;100.83;37.67;;;;;;;13.80;100.00;102348.34;4987219;28;20023;-71
2023/09/04 04:21:42;;;;;;;121.83;43.30;;;;;;;13.79;100.00;102353.84;4984682;28;20218;-72
2023/09/04 04:24:07;;;;;;;91.07;36.33;;;;;;;13.76;100.00;102354.16;4998817;28;20287;-72
2023/09/04 04:26:32;;;;;;;78.23;31.27;;;;;;;13.72;100.00;102358.97;4986041;28;20470;-71
2023/09/04 04:28:58;;;;;;;96.97;39.67;;;;;;;13.73;100.00;102358.81;5000109;28;20038;-72
2023/09/04 04:31:23;;;;;;;105.77;38.50;;;;;;;13.80;100.00;102367.16;4984534;28;20049;-71
2023/09/04 04:33:49;;;;;;;82.00;37.50;;;;;;;13.83;100.00;102369.53;4988741;28;20030;-71
2023/09/04 04:36:14;;;;;;;140.13;46.83;;;;;;;13.80;100.00;102369.00;4976213;28;20429;-72
2023/09/04 04:38:40;;;;;;;136.87;45.60;;;;;;;13.83;100.00;102366.84;4977307;28;20026;-72
2023/09/04 04:41:06;;;;;;;85.65;37.65;;;;;;;13.93;100.00;102367.69;4997777;28;20132;-71
2023/09/04 04:43:32;;;;;;;123.43;44.85;;;;;;;13.89;100.00;102362.75;4991739;28;20113;-71
2023/09/04 04:45:58;;;;;;;99.15;41.55;;;;;;;13.91;100.00;102366.16;4983183;28;20038;-70
2023/09/04 04:48:23;;;;;;;97.30;42.67;;;;;;;13.96;100.00;102365.72;4968720;28;20039;-70
2023/09/04 04:50:49;;;;;;;97.80;41.43;;;;;;;14.01;100.00;102372.31;5002125;28;20750;-70
2023/09/04 04:53:14;;;;;;;90.07;41.77;;;;;;;14.05;100.00;102364.84;4984970;28;20034;-70
2023/09/04 04:55:39;;;;;;;174.37;51.47;;;;;;;14.00;100.00;102373.34;4974336;28;20055;-70
2023/09/04 04:58:05;;;;;;;89.90;39.37;;;;;;;14.12;100.00;102376.69;4973834;28;20619;-70
2023/09/04 05:00:30;;;;;;;101.10;42.77;;;;;;;14.16;100.00;102386.13;4999718;28;20124;-70
2023/09/04 05:02:56;;;;;;;91.17;40.37;;;;;;;14.20;100.00;102378.63;5000418;28;20196;-70
2023/09/04 05:05:22;;;;;;;96.18;42.70;;;;;;;14.24;100.00;102383.56;4983330;28;20045;-70
2023/09/04 05:07:48;;;;;;;80.73;39.63;;;;;;;14.26;100.00;102373.53;4969084;28;20436;-70
2023/09/04 05:10:14;;;;;;;91.38;38.85;;;;;;;14.34;100.00;102373.63;5006933;28;20034;-70
2023/09/04 05:12:40;;;;;;;93.45;40.72;;;;;;;14.39;100.00;102383.09;4974093;28;20117;-70
2023/09/04 05:15:07;;;;;;;90.07;41.13;;;;;;;14.42;100.00;102397.09;4988370;28;20034;-70
2023/09/04 05:17:33;;;;;;;125.97;45.92;;;;;;;14.36;100.00;102385.06;4982852;28;20030;-71
2023/09/04 05:19:58;;;;;;;96.85;39.10;;;;;;;14.32;100.00;102389.03;4982563;28;20117;-70
2023/09/04 05:22:23;;;;;;;96.87;42.33;;;;;;;14.45;100.00;102390.56;4986341;28;20057;-70
2023/09/04 05:24:49;;;;;;;124.43;42.37;;;;;;;14.45;100.00;102382.50;4973042;28;20053;-70
2023/09/04 05:27:14;;;;;;;153.07;46.93;;;;;;;14.31;100.00;102381.16;4981508;28;20780;-70
2023/09/04 05:29:40;;;;;;;114.30;42.87;;;;;;;14.40;100.00;102387.44;4983760;28;20034;-71
2023/09/04 05:32:05;;;;;;;93.27;39.70;;;;;;;14.49;100.00;102383.88;4991157;28;20867;-70
2023/09/04 05:34:30;;;;;;;115.45;42.25;;;;;;;14.42;100.00;102390.84;4986309;28;20758;-71
2023/09/04 05:36:56;;;;;;;121.03;43.53;;;;;;;14.48;100.00;102387.56;4983263;28;20030;-70
2023/09/04 05:39:21;;;;;;;105.80;42.07;;;;;;;14.68;100.00;102396.41;4999983;28;20050;-70
2023/09/04 05:41:47;;;;;;;88.33;40.37;;;;;;;14.59;100.00;102379.34;5005242;22;20061;-93
2023/09/04 05:44:13;;;;;;;;;;;;;;;14.93;100.00;102394.84;4996723;28;20094;-92
2023/09/04 05:46:38;;;;;;;78.35;35.25;;;;;;;14.80;100.00;102386.28;5016397;28;19908;-92
2023/09/04 05:49:04;;;;;;;75.20;36.63;;;;;;;14.89;100.00;102370.13;5018772;28;20037;-94
2023/09/04 05:51:29;;;;;;;68.13;34.97;;;;;;;15.12;100.00;102375.88;4994372;28;20047;-94
2023/09/04 05:53:54;;;;;;;57.27;32.30;;;;;;;15.25;100.00;102358.56;5010155;28;20320;-94
2023/09/04 05:56:20;;;;;;;61.73;33.47;;;;;;;15.81;100.00;102384.28;4989349;28;20014;-92
2023/09/04 05:58:50;;;;;;;52.00;30.77;;;;;;;16.16;100.00;102382.50;4987433;28;20042;-92
2023/09/04 06:01:16;;;;;;;54.33;33.28;;;;;;;16.17;100.00;102379.63;4978323;28;20038;-92
2023/09/04 06:03:43;;;;;;;54.55;33.28;;;;;;;16.25;100.00;102366.19;4977082;28;20120;-91
2023/09/04 06:06:09;;;;;;;50.75;31.08;;;;;;;16.20;100.00;102370.38;4995113;28;20038;-91
2023/09/04 06:08:35;;;;;;;57.17;33.30;;;;;;;15.56;100.00;102370.56;4977830;28;20080;-91
2023/09/04 06:11:01;;;;;;;;;;;;;;;15.74;100.00;102380.53;4981750;28;20275;-90
2023/09/04 06:13:26;;;;;;;57.22;32.85;;;;;;;15.47;100.00;102390.34;4993731;28;19917;-91
2023/09/04 06:15:52;;;;;;;64.30;36.70;;;;;;;15.24;100.00;102395.38;5005126;28;20038;-91
2023/09/04 06:18:21;;;;;;;69.22;37.15;;;;;;;15.09;100.00;102415.72;4989549;28;20444;-91
2023/09/04 06:20:50;;;;;;;71.90;36.70;;;;;;;15.26;100.00;102411.34;5004162;28;20390;-91
2023/09/04 06:23:15;;;;;;;57.17;33.92;;;;;;;15.28;100.00;102412.03;4999840;28;20034;-91
2023/09/04 06:25:44;;;;;;;68.50;36.13;;;;;;;15.22;100.00;102416.19;4989433;28;20075;-90
2023/09/04 06:28:10;;;;;;;71.45;36.97;;;;;;;15.01;100.00;102416.47;5007821;28;20686;-91
2023/09/04 06:30:36;;;;;;;73.07;39.00;;;;;;;15.18;100.00;102418.34;4989646;28;20022;-90
2023/09/04 06:33:02;;;;;;;68.65;38.25;;;;;;;15.14;100.00;102425.00;5003254;28;20046;-90
2023/09/04 06:35:30;;;;;;;70.78;38.65;;;;;;;15.10;100.00;102434.41;5000766;28;20022;-91
2023/09/04 06:37:56;;;;;;;68.50;35.72;;;;;;;15.36;100.00;102445.28;5004663;28;20087;-92
2023/09/04 06:40:22;;;;;;;67.95;35.92;;;;;;;15.02;100.00;102415.47;4981208;28;20026;-90
2023/09/04 06:42:48;;;;;;;55.83;32.30;;;;;;;15.55;100.00;102422.75;4995816;28;20048;-91
2023/09/04 06:45:13;;;;;;;61.38;33.28;;;;;;;15.34;100.00;102416.81;4987330;28;20038;-88
2023/09/04 06:47:40;;;;;;;59.67;34.17;;;;;;;15.78;100.00;102423.13;5003032;28;20034;-90
2023/09/04 06:50:06;;;;;;;;;;;;;;;16.04;100.00;102431.25;4999059;28;20277;-90
2023/09/04 06:52:31;;;;;;;41.30;25.25;;;;;;;16.99;100.00;102438.50;4999539;28;20033;-91
2023/09/04 06:54:57;;;;;;;39.23;26.27;;;;;;;17.17;100.00;102408.69;4980062;28;20396;-91
2023/09/04 06:57:22;;;;;;;31.77;22.20;;;;;;;18.11;100.00;102400.09;5000882;28;20579;-91
2023/09/04 06:59:48;;;;;;;29.37;20.90;;;;;;;18.50;100.00;102361.47;4973046;28;20042;-91
2023/09/04 07:02:13;;;;;;;26.05;18.92;;;;;;;19.21;100.00;102326.22;4988616;28;20045;-89
2023/09/04 07:04:38;;;;;;;25.10;17.80;;;;;;;19.54;100.00;102269.06;4985001;28;20034;-89
2023/09/04 07:07:04;;;;;;;24.23;18.33;;;;;;;19.70;100.00;102211.19;5012183;28;20128;-90
2023/09/04 07:09:29;;;;;;;22.50;15.83;;;;;;;20.29;100.00;102145.97;4995486;28;20025;-89
2023/09/04 07:11:55;;;;;;;23.57;15.07;;;;;;;20.94;100.00;102070.78;4990435;28;20543;-89
2023/09/04 07:14:20;;;;;;;21.95;15.68;;;;;;;20.41;100.00;102008.81;4984475;28;20117;-90
2023/09/04 07:16:45;;;;;;;17.77;13.27;;;;;;;20.80;100.00;101952.34;5011363;28;20034;-91
2023/09/04 07:19:11;;;;;;;20.70;15.03;;;;;;;20.13;100.00;101815.47;4983417;28;20449;-91
2023/09/04 07:21:36;;;;;;;19.67;15.33;;;;;;;19.61;100.00;101850.09;4987514;28;20041;-91
2023/09/04 07:24:03;;;;;;;19.23;15.30;;;;;;;20.30;100.00;101909.03;4984662;28;20046;-92
2023/09/04 07:26:29;;;;;;;17.85;13.25;;;;;;;20.76;100.00;101904.91;5001744;28;20304;-89
2023/09/04 07:28:55;;;;;;;11.00;8.50;;;;;;;21.39;100.00;101821.31;4987977;28;20022;-88
2023/09/04 07:31:21;;;;;;;14.43;10.80;;;;;;;21.36;100.00;101642.50;5011141;28;20385;-92
2023/09/04 07:33:47;;;;;;;15.77;12.20;;;;;;;20.77;100.00;101656.97;4981846;28;20033;-91
2023/09/04 07:36:13;;;;;;;13.48;10.57;;;;;;;21.40;100.00;101733.41;4992078;28;20038;-90
2023/09/04 07:38:39;;;;;;;14.63;10.43;;;;;;;21.89;100.00;101668.66;4997241;28;20036;-90
2023/09/04 07:41:04;;;;;;;13.63;10.90;;;;;;;21.64;100.00;101443.03;5007972;28;20140;-91
2023/09/04 07:43:31;;;;;;;14.67;11.30;;;;;;;21.69;100.00;101500.28;4980948;28;20053;-90
2023/09/04 07:45:57;;;;;;;12.45;9.55;;;;;;;21.61;100.00;101546.72;4984675;28;20148;-90
2023/09/04 07:48:23;;;;;;;13.05;10.90;;;;;;;21.71;100.00;101634.06;4998950;28;20034;-91
2023/09/04 07:50:54;;;;;;;14.85;9.65;;;;;;;21.87;100.00;101590.09;4977174;28;20457;-91
2023/09/04 07:53:20;;;;;;;15.85;12.10;;;;;;;21.38;100.00;101439.41;5001105;28;20069;-91
2023/09/04 07:55:46;;;;;;;;;;;;;;;22.45;100.00;101601.88;4987337;28;20034;-91
2023/09/04 07:58:12;;;;;;;12.43;10.48;;;;;;;22.03;100.00;101462.81;4984422;28;19925;-88
2023/09/04 08:00:51;;;;;;;13.77;11.00;;;;;;;21.89;100.00;101454.78;4991488;28;20085;-88
2023/09/04 08:03:17;;;;;;;13.10;10.32;;;;;;;22.62;100.00;101461.50;5004748;28;20068;-88
2023/09/04 08:05:42;;;;;;;11.27;8.38;;;;;;;23.04;100.00;101425.44;4983384;28;20053;-88
2023/09/04 08:08:09;;;;;;;11.95;9.05;;;;;;;23.25;100.00;101394.16;5004000;28;20097;-93
2023/09/04 08:10:43;;;;;;;13.13;9.10;;;;;;;23.33;100.00;101244.00;5005142;28;20034;-92
2023/09/04 08:13:11;;;;;;;12.15;10.57;;;;;;;23.27;100.00;101136.81;5013130;28;20444;-91
2023/09/04 08:15:36;;;;;;;8.23;6.82;;;;;;;23.87;100.00;101211.19;4986892;28;20034;-94
2023/09/04 08:18:02;;;;;;;10.70;7.97;;;;;;;24.11;100.00;101285.59;4986957;28;20042;-91
2023/09/04 08:20:28;;;;;;;11.35;8.25;;;;;;;22.63;100.00;101343.41;4986565;28;20300;-91
2023/09/04 08:22:53;;;;;;;10.77;8.32;;;;;;;22.80;100.00;101515.09;4989027;28;20057;-91
2023/09/04 08:25:18;;;;;;;10.87;7.07;;;;;;;23.09;100.00;101516.28;4990399;28;20038;-91
2023/09/04 08:27:44;;;;;;;8.48;5.80;;;;;;;23.58;100.00;101440.00;4996725;28;20273;-91
2023/09/04 08:30:10;;;;;;;10.53;7.83;;;;;;;23.79;100.00;101318.72;4988280;28;20048;-91
2023/09/04 08:32:35;;;;;;;11.10;5.90;;;;;;;24.54;100.00;101292.56;4988946;28;20034;-91
2023/09/04 08:35:01;;;;;;;8.98;6.95;;;;;;;24.74;100.00;101014.44;4986175;28;20034;-89
2023/09/04 08:37:26;;;;;;;6.82;5.80;;;;;;;24.43;100.00;101024.03;4996736;28;20040;-90
2023/09/04 08:39:51;;;;;;;7.70;6.90;;;;;;;24.38;96.90;100792.88;5007896;28;20056;-90
2023/09/04 08:42:17;;;;;;;7.97;5.43;;;;;;;24.90;94.41;100815.34;4984053;28;20034;-91
2023/09/04 08:44:43;;;;;;;7.32;4.82;;;;;;;25.63;92.57;100889.59;5010460;28;20367;-90
2023/09/04 08:47:09;;;;;;;6.88;5.25;;;;;;;25.42;88.13;100520.47;4994978;28;20041;-91
2023/09/04 08:49:36;;;;;;;;;;;;;;;25.93;87.53;100691.34;4995620;28;20022;-90
2023/09/04 08:52:01;;;;;;;8.07;5.50;;;;;;;25.74;85.07;100503.09;4994531;28;19921;-90
2023/09/04 08:54:28;;;;;;;6.00;4.80;;;;;;;25.88;85.83;100675.72;4993116;28;20030;-89
2023/09/04 08:56:53;;;;;;;7.05;5.63;;;;;;;25.98;84.87;100585.50;4987639;28;20037;-90
2023/09/04 08:59:19;;;;;;;4.07;3.10;;;;;;;26.31;82.42;100545.88;5010569;28;20038;-92
2023/09/04 09:01:44;;;;;;;4.68;3.35;;;;;;;26.52;81.48;100576.84;4988874;28;20057;-91
2023/09/04 09:04:10;;;;;;;3.80;2.78;;;;;;;26.56;77.14;100234.16;4995895;28;20080;-90
2023/09/04 09:06:36;;;;;;;4.03;3.35;;;;;;;26.29;77.15;100227.13;5009889;28;20713;-91
2023/09/04 09:09:03;;;;;;;6.65;3.90;;;;;;;25.89;79.42;100483.19;4985105;28;20461;-90
2023/09/04 09:11:29;;;;;;;4.00;3.28;;;;;;;26.02;77.67;100389.69;4991681;28;20053;-91
2023/09/04 09:13:54;;;;;;;3.20;2.72;;;;;;;26.24;76.48;100339.31;4990283;28;20057;-90
2023/09/04 09:16:20;;;;;;;6.63;3.67;;;;;;;26.46;72.51;99978.56;5011126;28;20046;-92
2023/09/04 09:18:47;;;;;;;5.85;3.78;;;;;;;26.30;74.26;100204.97;5002076;28;20140;-91
2023/09/04 09:21:25;;;;;;;5.50;2.75;;;;;;;27.14;74.28;100451.63;4990916;28;20103;-90
2023/09/04 09:24:11;;;;;;;4.85;3.20;;;;;;;26.26;72.13;100030.69;4987405;28;20033;-90
2023/09/04 09:26:41;;;;;;;3.85;3.40;;;;;;;25.96;72.01;100007.91;4989125;28;20115;-90
2023/09/04 09:29:10;;;;;;;7.00;3.58;;;;;;;26.51;70.88;100057.88;4996872;28;20044;-90
2023/09/04 09:31:36;;;;;;;5.95;2.53;;;;;;;27.40;71.47;100420.56;5001697;28;21005;-90
2023/09/04 09:34:03;;;;;;;4.15;3.30;;;;;;;27.22;70.87;100244.72;4985660;28;20045;-88
2023/09/04 09:36:28;;;;;;;3.35;2.67;;;;;;;27.65;70.47;100359.25;5008613;28;20026;-88
2023/09/04 09:38:54;;;;;;;5.10;2.83;;;;;;;27.33;67.38;99925.63;5004817;28;20030;-87
2023/09/04 09:41:19;;;;;;;;;;;;;;;26.92;68.02;99915.13;4990284;28;20038;-90
2023/09/04 09:43:48;;;;;;;7.07;4.38;;;;;;;27.42;64.93;99735.84;5004453;28;19914;-91
2023/09/04 09:46:17;;;;;;;4.68;3.20;;;;;;;27.33;66.65;99965.94;4989407;28;20433;-91
2023/09/04 09:48:44;;;;;;;7.72;4.13;;;;;;;27.50;65.25;99818.22;4993984;28;20034;-91
2023/09/04 09:51:10;;;;;;;4.75;2.90;;;;;;;27.57;66.70;100081.84;5008273;28;20048;-91
2023/09/04 09:53:46;;;;;;;;;;;;;;;28.23;65.09;100128.78;4974661;28;20027;-89
2023/09/04 09:56:12;;;;;;;5.15;3.63;;;;;;;27.95;63.08;99732.78;4997389;28;20505;-90
2023/09/04 09:58:45;;;;;;;6.15;3.42;;;;;;;27.40;63.94;99760.84;4981676;28;20030;-89
2023/09/04 10:01:11;;;;;;;6.80;3.72;;;;;;;27.84;64.04;99868.47;5002621;28;20030;-89
2023/09/04 10:03:38;;;;;;;4.68;3.25;;;;;;;27.28;62.25;99494.72;4981275;28;20025;-87
2023/09/04 10:06:04;;;;;;;6.45;2.63;;;;;;;28.34;63.17;100036.13;4998769;28;20058;-90
2023/09/04 10:08:33;;;;;;;3.53;2.47;;;;;;;28.65;61.14;99814.06;4983363;28;20037;-90
2023/09/04 10:11:02;;;;;;;5.40;3.20;;;;;;;27.48;60.21;99277.78;4989186;28;20088;-89
2023/09/04 10:13:34;;;;;;;2.97;2.78;;;;;;;28.01;61.34;99714.31;4991467;28;20034;-89
2023/09/04 10:16:01;;;;;;;5.40;2.80;;;;;;;28.10;59.36;99458.16;4998646;28;20408;-89
2023/09/04 10:18:29;;;;;;;2.83;2.20;;;;;;;28.93;59.11;99787.38;4992526;28;20477;-90
2023/09/04 10:20:56;;;;;;;9.48;3.83;;;;;;;27.81;60.65;99534.47;4980980;28;20030;-90
2023/09/04 10:23:35;;;;;;;6.00;2.92;;;;;;;27.90;58.37;99297.63;4977159;28;20038;-87
2023/09/04 10:26:08;;;;;;;3.22;2.50;;;;;;;28.47;58.91;99637.38;4981946;28;20061;-86
2023/09/04 10:28:40;;;;;;;3.00;2.60;;;;;;;27.51;57.80;99095.47;4984128;28;20032;-91
2023/09/04 10:31:06;;;;;;;5.65;2.22;;;;;;;28.03;59.46;99638.00;4981227;28;20043;-91
2023/09/04 10:33:32;;;;;;;4.75;2.40;;;;;;;28.85;58.07;99770.81;4975226;28;20492;-91
2023/09/04 10:35:58;;;;;;;3.47;2.30;;;;;;;29.13;56.42;99602.03;5003035;28;20049;-91
2023/09/04 10:38:24;;;;;;;;;;;;;;;29.14;57.96;99746.53;4992984;28;20046;-87
2023/09/04 10:40:51;;;;;;;2.33;2.13;;;;;;;29.13;56.80;99634.19;4976286;28;19936;-87
2023/09/04 10:43:16;;;;;;;2.80;1.95;;;;;;;29.54;56.57;99732.13;4987572;28;20049;-88
2023/09/04 10:45:41;;;;;;;5.45;2.70;;;;;;;29.21;54.47;99237.72;4983765;28;20061;-89
2023/09/04 10:48:07;;;;;;;;;;;;;;;28.48;55.38;99131.16;4989834;28;20558;-90
2023/09/04 10:50:39;;;;;;;3.05;1.90;;;;;;;28.09;56.07;99151.22;5004642;28;20011;-89
2023/09/04 10:53:07;;;;;;;3.35;2.17;;;;;;;28.09;56.04;99223.34;4996782;28;20538;-89
2023/09/04 10:55:37;;;;;;;3.40;2.03;;;;;;;28.50;56.57;99499.47;5001336;28;20065;-88
2023/09/04 10:58:07;;;;;;;2.25;1.75;;;;;;;29.57;54.94;99610.50;4998907;28;20038;-91
2023/09/04 11:00:33;;;;;;;2.60;1.83;;;;;;;28.98;53.52;99144.41;4997467;28;20043;-91
2023/09/04 11:03:15;;;;;;;2.13;1.80;;;;;;;29.05;53.86;99265.63;4987663;28;20034;-91
2023/09/04 11:06:02;;;;;;;4.30;2.42;;;;;;;28.54;52.62;98844.41;4978789;28;20030;-91
2023/09/04 11:08:33;;;;;;;2.90;2.00;;;;;;;28.36;54.84;99262.69;4995780;28;20033;-91